Time;durP1;ratioP1;P1;durP2;ratioP2;P2;SDS_P1;SDS_P2;PMS_P1;PMS_P2;Temp;Humidity;BMP_temperature;BMP_pressure;BME280_temperature;BME280_humidity;BME280_pressure;Samples;Min_cycle;Max_cycle;Signal;HPM_P1;HPM_P2
2023/08/05 00:01:55;;;;;;;7.03;5.13;;;;;;;15.81;100.00;98042.13;5054391;28;20217;-76
2023/08/05 00:04:22;;;;;;;6.80;5.33;;;;;;;15.75;100.00;98051.53;5054192;28;20753;-75
2023/08/05 00:06:52;;;;;;;7.33;5.00;;;;;;;15.72;100.00;98053.63;5054088;28;20234;-75
2023/08/05 00:09:18;;;;;;;8.00;5.53;;;;;;;15.71;100.00;98054.63;5053521;28;20226;-75
2023/08/05 00:11:45;;;;;;;9.07;4.63;;;;;;;15.73;100.00;98052.66;5054068;28;20218;-75
2023/08/05 00:14:11;;;;;;;6.60;4.90;;;;;;;15.79;100.00;98060.09;5054271;28;20234;-76
2023/08/05 00:16:39;;;;;;;6.93;5.40;;;;;;;15.76;100.00;98065.72;5054158;28;20292;-75
2023/08/05 00:19:06;;;;;;;5.63;4.40;;;;;;;15.73;100.00;98058.84;5053857;28;20215;-75
2023/08/05 00:21:35;;;;;;;6.43;4.53;;;;;;;15.71;100.00;98055.44;5054265;28;20211;-75
2023/08/05 00:24:03;;;;;;;9.53;4.97;;;;;;;15.72;100.00;98053.63;5054092;28;20594;-75
2023/08/05 00:26:29;;;;;;;5.50;4.40;;;;;;;15.76;100.00;98057.72;5053401;28;20211;-75
2023/08/05 00:28:56;;;;;;;6.93;4.97;;;;;;;15.79;100.00;98057.41;5053929;28;20218;-76
2023/08/05 00:31:22;;;;;;;7.43;5.13;;;;;;;15.70;100.00;98063.59;5053038;28;20232;-76
2023/08/05 00:33:49;;;;;;;7.73;4.97;;;;;;;15.70;100.00;98063.59;5053667;28;20218;-75
2023/08/05 00:36:15;;;;;;;6.63;4.83;;;;;;;15.74;100.00;98067.66;5053815;28;20589;-77
2023/08/05 00:38:42;;;;;;;7.07;4.87;;;;;;;15.73;100.00;98061.50;5054041;28;20208;-76
2023/08/05 00:41:10;;;;;;;6.43;4.47;;;;;;;15.75;100.00;98056.84;5053599;28;20218;-76
2023/08/05 00:43:36;;;;;;;5.50;4.33;;;;;;;15.74;100.00;98047.19;5053773;28;20594;-75
2023/08/05 00:46:03;;;;;;;6.87;5.03;;;;;;;15.73;100.00;98042.84;5053622;28;20211;-77
2023/08/05 00:48:30;;;;;;;8.53;5.13;;;;;;;15.66;100.00;98049.72;5053426;28;20238;-75
2023/08/05 00:50:56;;;;;;;7.90;4.80;;;;;;;15.58;100.00;98038.06;5052705;28;20231;-77
2023/08/05 00:53:23;;;;;;;6.20;4.77;;;;;;;15.59;100.00;98034.41;5053406;28;20215;-75
2023/08/05 00:55:51;;;;;;;6.10;4.90;;;;;;;15.59;100.00;98029.91;5053686;28;20269;-75
2023/08/05 00:58:20;;;;;;;6.97;5.00;;;;;;;15.55;100.00;98022.34;5067517;22;20242;-77
2023/08/05 01:00:46;;;;;;;6.50;4.70;;;;;;;15.47;100.00;98024.88;5051913;28;20204;-77
2023/08/05 01:03:13;;;;;;;6.93;4.60;;;;;;;15.55;100.00;98017.00;5052773;28;20240;-75
2023/08/05 01:05:41;;;;;;;6.47;4.70;;;;;;;15.50;100.00;98019.25;5053040;28;20210;-77
2023/08/05 01:08:08;;;;;;;6.90;4.97;;;;;;;15.50;100.00;98017.44;5052973;28;20240;-76
2023/08/05 01:10:35;;;;;;;7.23;5.37;;;;;;;15.52;100.00;98019.97;5052074;28;20231;-75
2023/08/05 01:13:02;;;;;;;7.37;4.93;;;;;;;15.46;100.00;98024.03;5053010;28;20214;-75
2023/08/05 01:15:30;;;;;;;6.20;4.80;;;;;;;15.47;100.00;98025.69;5053020;28;20587;-75
2023/08/05 01:17:58;;;;;;;5.87;4.47;;;;;;;15.45;100.00;98033.00;5052655;28;20235;-75
2023/08/05 01:20:28;;;;;;;6.10;4.80;;;;;;;15.47;100.00;98033.69;5052297;28;20222;-75
2023/08/05 01:23:02;;;;;;;6.83;5.23;;;;;;;15.49;100.00;98033.56;5052789;28;20222;-76
2023/08/05 01:25:32;;;;;;;5.40;4.50;;;;;;;15.48;100.00;98031.88;5052565;28;20215;-75
2023/08/05 01:28:01;;;;;;;7.13;4.77;;;;;;;15.53;100.00;98032.31;5052412;28;20228;-75
2023/08/05 01:30:30;;;;;;;6.03;4.73;;;;;;;15.57;100.00;98031.06;5051311;28;20231;-75
2023/08/05 01:32:59;;;;;;;5.50;4.63;;;;;;;15.55;100.00;98030.34;5052293;28;20691;-75
2023/08/05 01:35:26;;;;;;;7.33;4.80;;;;;;;15.52;100.00;98033.28;5052324;28;20219;-75
2023/08/05 01:37:52;;;;;;;4.77;4.13;;;;;;;15.53;100.00;98034.97;5052090;28;20254;-75
2023/08/05 01:40:19;;;;;;;8.47;4.93;;;;;;;15.55;100.00;98038.34;5050972;28;20211;-75
2023/08/05 01:42:47;;;;;;;7.97;5.03;;;;;;;15.58;100.00;98038.06;5052560;28;20203;-77
2023/08/05 01:45:13;;;;;;;7.07;4.53;;;;;;;15.58;100.00;98032.75;5052356;28;20204;-77
2023/08/05 01:47:40;;;;;;;9.93;4.97;;;;;;;15.63;100.00;98036.66;5052163;28;20227;-75
2023/08/05 01:50:07;;;;;;;6.17;4.87;;;;;;;15.67;100.00;98045.22;5051210;28;20235;-75
2023/08/05 01:52:33;;;;;;;6.83;4.50;;;;;;;15.76;100.00;98047.06;5052102;28;20223;-75
2023/08/05 01:55:00;;;;;;;6.43;4.50;;;;;;;15.73;100.00;98048.16;5052421;28;20235;-75
2023/08/05 01:57:26;;;;;;;6.03;4.63;;;;;;;15.73;100.00;98037.50;5051763;28;20254;-75
2023/08/05 01:59:54;;;;;;;7.20;4.97;;;;;;;15.71;100.00;98033.31;5051279;28;20218;-75
2023/08/05 02:02:21;;;;;;;5.93;4.67;;;;;;;15.74;100.00;98043.66;5051992;28;20220;-75
2023/08/05 02:04:47;;;;;;;6.27;4.50;;;;;;;15.70;100.00;98020.97;5051936;28;20215;-75
2023/08/05 02:07:14;;;;;;;10.57;5.40;;;;;;;15.71;100.00;98022.66;5051629;28;20231;-75
2023/08/05 02:09:40;;;;;;;6.60;4.60;;;;;;;15.73;100.00;98023.34;5050983;28;20318;-75
2023/08/05 02:12:07;;;;;;;8.87;5.40;;;;;;;15.68;100.00;98022.91;5051651;28;20212;-75
2023/08/05 02:14:34;;;;;;;5.57;4.23;;;;;;;15.65;100.00;98012.53;5051793;28;20234;-76
2023/08/05 02:17:02;;;;;;;7.03;4.57;;;;;;;15.57;100.00;98015.91;5051545;28;20243;-76
2023/08/05 02:19:28;;;;;;;7.10;5.30;;;;;;;15.60;100.00;98020.13;5050739;28;20227;-75
2023/08/05 02:21:55;;;;;;;8.40;5.13;;;;;;;15.48;100.00;98021.22;5051383;28;20203;-75
2023/08/05 02:24:21;;;;;;;6.67;4.93;;;;;;;15.46;100.00;98012.53;5051295;28;20217;-77
2023/08/05 02:26:48;;;;;;;7.83;5.20;;;;;;;15.43;100.00;98012.81;5051401;28;20226;-75
2023/08/05 02:29:14;;;;;;;7.03;5.23;;;;;;;15.48;100.00;98010.56;5050814;28;20559;-75
2023/08/05 02:31:41;;;;;;;7.70;5.13;;;;;;;15.49;100.00;98001.59;5050999;28;20235;-75
2023/08/05 02:34:08;;;;;;;6.63;4.90;;;;;;;15.45;100.00;97994.88;5051336;28;20211;-75
2023/08/05 02:36:35;;;;;;;8.57;5.10;;;;;;;15.43;100.00;97988.84;5051280;28;20215;-75
2023/08/05 02:39:01;;;;;;;6.87;5.03;;;;;;;15.41;100.00;97982.81;5050910;28;20231;-76
2023/08/05 02:41:28;;;;;;;7.17;5.17;;;;;;;15.32;100.00;97979.16;5050723;28;20666;-77
2023/08/05 02:43:54;;;;;;;9.73;5.77;;;;;;;15.19;100.00;97973.22;5051461;28;20207;-77
2023/08/05 02:46:21;;;;;;;8.07;5.50;;;;;;;15.15;100.00;97971.81;5051133;28;20216;-75
2023/08/05 02:48:47;;;;;;;7.93;5.50;;;;;;;15.13;100.00;97967.59;5051220;28;20708;-77
2023/08/05 02:51:15;;;;;;;7.83;5.10;;;;;;;15.06;100.00;97974.47;5050184;28;20238;-77
2023/08/05 02:53:42;;;;;;;8.43;5.73;;;;;;;15.02;100.00;97986.38;5050865;28;20217;-76
2023/08/05 02:56:08;;;;;;;6.60;5.43;;;;;;;14.99;100.00;97983.97;5051232;28;20586;-76
2023/08/05 02:58:35;;;;;;;7.70;6.13;;;;;;;14.91;100.00;97978.50;5050972;28;20243;-76
2023/08/05 03:01:05;;;;;;;7.67;5.23;;;;;;;15.00;100.00;97998.97;5050408;28;20210;-76
2023/08/05 03:03:32;;;;;;;9.03;5.90;;;;;;;14.90;100.00;97998.13;5051420;28;20215;-76
2023/08/05 03:05:59;;;;;;;8.60;5.57;;;;;;;14.93;100.00;98003.16;5050919;28;20214;-76
2023/08/05 03:08:26;;;;;;;7.77;5.50;;;;;;;14.86;100.00;97996.69;5051083;28;20597;-76
2023/08/05 03:10:57;;;;;;;10.23;5.27;;;;;;;14.97;100.00;97999.25;5050304;28;20340;-76
2023/08/05 03:13:24;;;;;;;6.33;5.23;;;;;;;14.94;100.00;97999.50;5051111;28;20308;-76
2023/08/05 03:15:51;;;;;;;8.77;5.90;;;;;;;14.87;100.00;98009.88;5051004;28;20237;-76
2023/08/05 03:18:17;;;;;;;6.13;5.53;;;;;;;14.90;100.00;98014.09;5050823;28;20721;-75
2023/08/05 03:20:44;;;;;;;8.53;5.30;;;;;;;14.94;100.00;98023.47;5049854;28;20290;-77
2023/08/05 03:23:11;;;;;;;7.30;5.30;;;;;;;14.92;100.00;98033.41;5050901;28;20262;-75
2023/08/05 03:25:39;;;;;;;6.63;5.13;;;;;;;14.94;100.00;98034.09;5050849;28;20214;-77
2023/08/05 03:28:06;;;;;;;7.37;5.60;;;;;;;14.99;100.00;98035.41;5050896;28;20608;-77
2023/08/05 03:30:32;;;;;;;9.93;5.97;;;;;;;15.04;100.00;98038.47;5049908;28;20711;-77
2023/08/05 03:32:59;;;;;;;8.30;5.90;;;;;;;15.14;100.00;98043.81;5050603;28;20211;-77
2023/08/05 03:35:25;;;;;;;7.27;4.73;;;;;;;15.11;100.00;98041.44;5051024;28;20230;-76
2023/08/05 03:37:52;;;;;;;9.50;6.07;;;;;;;15.13;100.00;98039.47;5050666;28;20234;-76
2023/08/05 03:40:18;;;;;;;11.47;6.17;;;;;;;15.14;100.00;98039.34;5049953;28;20210;-77
2023/08/05 03:42:46;;;;;;;8.97;5.90;;;;;;;15.17;100.00;98038.25;5050598;28;20211;-75
2023/08/05 03:45:13;;;;;;;6.63;5.20;;;;;;;15.18;100.00;98039.91;5050507;28;20215;-75
2023/08/05 03:47:39;;;;;;;9.40;6.03;;;;;;;15.22;100.00;98052.81;5050307;28;20241;-75
2023/08/05 03:50:09;;;;;;;6.77;5.00;;;;;;;15.18;100.00;98056.75;5049663;28;20670;-75
2023/08/05 03:52:35;;;;;;;7.03;5.60;;;;;;;15.19;100.00;98068.22;5050659;28;20653;-78
2023/08/05 03:55:02;;;;;;;8.73;5.40;;;;;;;15.22;100.00;98058.13;5050828;28;20207;-75
2023/08/05 03:57:28;;;;;;;8.67;5.53;;;;;;;15.28;100.00;98067.41;5050382;28;20245;-75
2023/08/05 03:59:57;;;;;;;6.00;5.03;;;;;;;15.28;100.00;98062.91;5049877;28;20210;-75
2023/08/05 04:02:24;;;;;;;7.77;5.20;;;;;;;15.30;100.00;98060.13;5051568;28;20208;-75
2023/08/05 04:04:51;;;;;;;6.20;4.97;;;;;;;15.34;100.00;98066.91;5054088;28;20210;-77
2023/08/05 04:07:19;;;;;;;8.97;6.13;;;;;;;15.37;100.00;98071.94;5054115;28;20598;-76
2023/08/05 04:09:46;;;;;;;8.40;5.67;;;;;;;15.34;100.00;98070.41;5053242;28;20215;-75
2023/08/05 04:12:14;;;;;;;6.87;4.97;;;;;;;15.37;100.00;98061.28;5053902;28;20247;-75
2023/08/05 04:14:43;;;;;;;7.80;5.50;;;;;;;15.36;100.00;98071.13;5053709;28;20231;-75
2023/08/05 04:17:14;;;;;;;7.67;5.83;;;;;;;15.32;100.00;98068.81;5054102;28;20622;-76
2023/08/05 04:19:40;;;;;;;7.27;5.17;;;;;;;15.35;100.00;98063.25;5052998;28;20215;-76
2023/08/05 04:22:07;;;;;;;6.43;5.23;;;;;;;15.34;100.00;98062.41;5053910;28;20208;-75
2023/08/05 04:24:34;;;;;;;7.13;5.57;;;;;;;15.36;100.00;98059.63;5053698;28;20211;-76
2023/08/05 04:27:01;;;;;;;8.77;6.30;;;;;;;15.31;100.00;98053.81;5053621;28;20233;-75
2023/08/05 04:29:27;;;;;;;7.07;5.80;;;;;;;15.37;100.00;98062.16;5052702;28;20215;-75
2023/08/05 04:31:54;;;;;;;8.40;6.00;;;;;;;15.39;100.00;98062.84;5053774;28;20267;-76
2023/08/05 04:34:22;;;;;;;6.67;5.20;;;;;;;15.39;100.00;98059.34;5053598;28;20216;-76
2023/08/05 04:36:50;;;;;;;7.00;5.20;;;;;;;15.37;100.00;98062.16;5053478;28;20696;-76
2023/08/05 04:39:17;;;;;;;9.47;5.67;;;;;;;15.33;100.00;98066.06;5052924;28;20214;-76
2023/08/05 04:41:44;;;;;;;8.40;5.63;;;;;;;15.39;100.00;98065.50;5053433;28;20207;-76
2023/08/05 04:44:10;;;;;;;7.63;5.93;;;;;;;15.35;100.00;98072.09;5053641;28;20299;-76
2023/08/05 04:46:37;;;;;;;8.50;5.77;;;;;;;15.31;100.00;98077.78;5053699;28;20674;-76
2023/08/05 04:49:05;;;;;;;7.87;4.90;;;;;;;15.38;100.00;98079.81;5053112;28;20226;-76
2023/08/05 04:51:32;;;;;;;8.77;5.63;;;;;;;15.42;100.00;98086.56;5053029;28;20231;-76
2023/08/05 04:53:59;;;;;;;7.23;5.20;;;;;;;15.37;100.00;98082.59;5053194;28;20207;-76
2023/08/05 04:56:26;;;;;;;10.33;5.83;;;;;;;15.38;100.00;98085.13;5053126;28;20222;-76
2023/08/05 04:58:52;;;;;;;7.53;4.80;;;;;;;15.41;100.00;98079.50;5053184;28;20239;-76
2023/08/05 05:01:19;;;;;;;8.87;5.93;;;;;;;15.39;100.00;98080.66;5052545;28;20212;-76
2023/08/05 05:03:46;;;;;;;7.73;5.07;;;;;;;15.37;100.00;98083.44;5053084;28;20220;-76
2023/08/05 05:06:12;;;;;;;7.30;5.33;;;;;;;15.45;100.00;98085.44;5053017;28;20250;-76
2023/08/05 05:08:40;;;;;;;5.83;4.83;;;;;;;15.40;100.00;98082.34;5052940;28;20231;-76
2023/08/05 05:11:07;;;;;;;7.33;5.77;;;;;;;15.43;100.00;98076.72;5052182;28;20326;-76
2023/08/05 05:13:33;;;;;;;7.53;5.60;;;;;;;15.43;100.00;98079.38;5051990;28;20213;-75
2023/08/05 05:16:02;;;;;;;9.83;5.87;;;;;;;15.41;100.00;98084.84;5053104;28;20688;-77
2023/08/05 05:18:29;;;;;;;8.33;5.50;;;;;;;15.46;100.00;98084.47;5052929;28;20242;-76
2023/08/05 05:20:55;;;;;;;7.67;5.03;;;;;;;15.49;100.00;98086.84;5052086;28;20212;-75
2023/08/05 05:23:22;;;;;;;6.60;5.30;;;;;;;15.54;100.00;98087.25;5052779;28;20321;-76
2023/08/05 05:25:50;;;;;;;9.73;5.83;;;;;;;15.56;100.00;98093.28;5052756;28;20276;-76
2023/08/05 05:28:16;;;;;;;6.37;4.60;;;;;;;15.50;100.00;98083.19;5053094;28;20238;-76
2023/08/05 05:30:43;;;;;;;9.50;4.90;;;;;;;15.56;100.00;98087.97;5052098;28;20590;-76
2023/08/05 05:33:09;;;;;;;6.63;5.23;;;;;;;15.57;100.00;98082.50;5052440;28;20211;-76
2023/08/05 05:35:36;;;;;;;7.40;5.27;;;;;;;15.56;100.00;98085.28;5052606;28;20204;-76
2023/08/05 05:38:02;;;;;;;7.00;5.47;;;;;;;15.54;100.00;98084.59;5052133;28;20246;-76
2023/08/05 05:40:29;;;;;;;7.63;5.57;;;;;;;15.57;100.00;98084.34;5051702;28;20210;-76
2023/08/05 05:42:57;;;;;;;7.33;5.27;;;;;;;15.57;100.00;98081.69;5052497;28;20238;-76
2023/08/05 05:45:23;;;;;;;7.87;5.30;;;;;;;15.63;100.00;98084.63;5052337;28;20207;-76
2023/08/05 05:47:50;;;;;;;6.63;4.97;;;;;;;15.63;100.00;98083.78;5051946;28;20235;-76
2023/08/05 05:50:19;;;;;;;6.60;4.77;;;;;;;15.61;100.00;98080.41;5051440;28;20217;-76
2023/08/05 05:52:48;;;;;;;7.30;5.10;;;;;;;15.62;100.00;98076.75;5051849;28;20330;-76
2023/08/05 05:55:15;;;;;;;5.53;4.57;;;;;;;15.66;100.00;98083.50;5051966;28;20211;-76
2023/08/05 05:57:42;;;;;;;8.23;5.00;;;;;;;15.71;100.00;98066.09;5051819;28;20795;-76
2023/08/05 06:00:10;;;;;;;6.07;5.00;;;;;;;15.74;100.00;98070.31;5051290;28;20211;-76
2023/08/05 06:02:37;;;;;;;6.00;4.33;;;;;;;15.79;100.00;98065.41;5051693;28;20211;-76
2023/08/05 06:05:04;;;;;;;6.20;4.73;;;;;;;15.87;100.00;98060.22;5051823;28;20219;-76
2023/08/05 06:07:30;;;;;;;5.53;4.30;;;;;;;15.92;100.00;98063.31;5051963;28;20261;-76
2023/08/05 06:09:57;;;;;;;5.83;4.70;;;;;;;16.01;100.00;98063.31;5051137;28;20210;-76
2023/08/05 06:12:27;;;;;;;7.33;4.50;;;;;;;16.15;100.00;98061.03;5051507;28;20237;-76
2023/08/05 06:14:54;;;;;;;5.93;4.53;;;;;;;16.26;100.00;98058.22;5051625;28;20273;-76
2023/08/05 06:17:22;;;;;;;4.90;4.40;;;;;;;16.31;100.00;98061.31;5051423;28;20552;-76
2023/08/05 06:19:48;;;;;;;8.53;4.67;;;;;;;16.36;100.00;98059.06;5050656;28;20211;-76
2023/08/05 06:22:15;;;;;;;6.40;4.37;;;;;;;16.53;100.00;98044.16;5051596;28;20215;-76
2023/08/05 06:24:41;;;;;;;6.23;4.47;;;;;;;16.58;100.00;98048.06;5051108;28;20231;-76
2023/08/05 06:27:08;;;;;;;5.80;4.30;;;;;;;16.59;100.00;98046.25;5051409;28;20239;-76
2023/08/05 06:29:34;;;;;;;5.13;4.13;;;;;;;16.64;100.00;98052.81;5050470;28;20678;-76
2023/08/05 06:32:01;;;;;;;5.73;4.70;;;;;;;16.79;100.00;98056.72;5051307;28;20722;-76
2023/08/05 06:34:28;;;;;;;6.03;4.47;;;;;;;16.87;100.00;98056.81;5051142;28;20218;-76
2023/08/05 06:36:55;;;;;;;5.67;4.73;;;;;;;16.93;100.00;98058.91;5051298;28;20207;-76
2023/08/05 06:39:21;;;;;;;5.83;4.33;;;;;;;16.97;100.00;98062.97;5050525;28;20211;-76
2023/08/05 06:41:48;;;;;;;5.23;4.10;;;;;;;17.05;100.00;98051.53;5051167;28;20204;-76
2023/08/05 06:44:14;;;;;;;6.37;4.37;;;;;;;17.16;100.00;98051.34;5051000;28;20215;-76
2023/08/05 06:46:41;;;;;;;4.60;3.73;;;;;;;17.36;100.00;98050.25;5050970;28;20227;-80
2023/08/05 06:49:09;;;;;;;6.03;4.33;;;;;;;17.48;100.00;98049.94;5050723;28;20619;-79
2023/08/05 06:51:37;;;;;;;6.33;4.40;;;;;;;17.49;100.00;98045.44;5050924;28;20709;-78
2023/08/05 06:54:04;;;;;;;5.43;3.90;;;;;;;17.48;100.00;98035.72;5051138;28;20231;-79
2023/08/05 06:56:30;;;;;;;6.57;4.23;;;;;;;17.45;98.90;98028.88;5050886;28;20208;-80
2023/08/05 06:58:57;;;;;;;5.33;4.30;;;;;;;17.42;99.65;98034.50;5064995;22;20231;-76
2023/08/05 07:01:24;;;;;;;5.60;4.03;;;;;;;17.53;99.11;98039.63;5049846;28;20218;-80
2023/08/05 07:03:51;;;;;;;5.80;4.33;;;;;;;17.50;99.26;98037.25;5051061;28;20212;-77
2023/08/05 07:06:17;;;;;;;6.33;4.30;;;;;;;17.54;98.44;98027.94;5051066;28;20230;-76
2023/08/05 07:08:45;;;;;;;6.17;4.40;;;;;;;17.57;97.58;98027.66;5050877;28;20228;-77
2023/08/05 07:11:12;;;;;;;5.03;4.00;;;;;;;17.51;97.37;98022.91;5050337;28;20591;-77
2023/08/05 07:13:38;;;;;;;6.10;4.33;;;;;;;17.47;98.32;98029.53;5051009;28;20337;-77
2023/08/05 07:16:05;;;;;;;6.97;4.50;;;;;;;17.58;98.62;98029.31;5051132;28;20208;-77
2023/08/05 07:18:31;;;;;;;5.43;4.03;;;;;;;17.74;98.31;98024.13;5051138;28;20273;-76
2023/08/05 07:20:58;;;;;;;11.37;5.20;;;;;;;17.90;96.42;98018.09;5050529;28;20295;-78
2023/08/05 07:23:25;;;;;;;5.87;4.17;;;;;;;18.05;95.70;98013.88;5051306;28;20208;-78
2023/08/05 07:25:53;;;;;;;6.23;3.73;;;;;;;18.24;93.34;98011.84;5050901;28;20218;-76
2023/08/05 07:28:20;;;;;;;5.97;4.13;;;;;;;18.23;92.32;98015.50;5050675;28;20607;-81
2023/08/05 07:30:46;;;;;;;6.50;4.40;;;;;;;18.17;92.68;98026.84;5050139;28;20215;-76
2023/08/05 07:33:14;;;;;;;4.50;3.70;;;;;;;18.30;92.32;98031.78;5050382;28;20235;-77
2023/08/05 07:35:41;;;;;;;6.67;4.10;;;;;;;18.35;92.27;98027.66;5050922;28;20209;-76
2023/08/05 07:38:15;;;;;;;13.97;4.30;;;;;;;18.37;92.38;98025.69;5053459;28;20600;-76
2023/08/05 07:40:41;;;;;;;5.73;3.87;;;;;;;18.38;91.66;98022.03;5054075;28;20208;-80
2023/08/05 07:43:09;;;;;;;4.97;3.90;;;;;;;18.44;91.31;98026.75;5054605;28;20209;-77
2023/08/05 07:45:36;;;;;;;14.73;4.57;;;;;;;18.41;91.60;98029.72;5054809;28;20273;-86
2023/08/05 07:48:06;;;;;;;5.93;3.63;;;;;;;18.45;91.09;98023.06;5053903;28;20220;-81
2023/08/05 07:50:34;;;;;;;7.00;3.90;;;;;;;18.64;91.49;98022.84;5053834;28;20608;-75
2023/08/05 07:53:00;;;;;;;5.30;4.00;;;;;;;18.80;89.80;98019.41;5054001;28;20235;-83
2023/08/05 07:55:29;;;;;;;5.27;4.03;;;;;;;18.70;88.19;98008.81;5054467;28;20208;-83
2023/08/05 07:57:56;;;;;;;5.13;3.73;;;;;;;18.56;89.17;98011.25;5052236;28;20231;-83
2023/08/05 08:00:26;;;;;;;4.27;3.83;;;;;;;18.63;90.42;98013.16;5051246;28;20203;-83
2023/08/05 08:02:53;;;;;;;5.00;3.70;;;;;;;18.71;90.74;98009.69;5051556;28;20239;-83
2023/08/05 08:05:19;;;;;;;5.60;4.37;;;;;;;18.66;89.99;98006.63;5051744;28;20216;-83
2023/08/05 08:07:46;;;;;;;6.10;3.67;;;;;;;18.70;89.29;98008.81;5054200;28;20323;-83
2023/08/05 08:10:13;;;;;;;4.03;3.27;;;;;;;18.74;88.78;98004.84;5053658;28;20303;-83
2023/08/05 08:12:39;;;;;;;5.30;3.60;;;;;;;18.76;88.28;97991.28;5054413;28;20228;-83
2023/08/05 08:15:09;;;;;;;4.63;3.43;;;;;;;18.79;88.99;97991.81;5054442;28;20208;-83
2023/08/05 08:17:37;;;;;;;4.03;3.30;;;;;;;18.80;87.99;97992.63;5054038;28;20224;-83
2023/08/05 08:20:07;;;;;;;4.53;3.87;;;;;;;18.88;87.70;98000.69;5053368;28;20207;-83
2023/08/05 08:22:34;;;;;;;4.43;3.30;;;;;;;18.88;89.17;98000.69;5054095;28;20208;-83
2023/08/05 08:25:00;;;;;;;4.37;3.40;;;;;;;19.18;88.31;98001.00;5054067;28;20215;-83
2023/08/05 08:27:27;;;;;;;4.87;3.47;;;;;;;19.25;86.83;97988.66;5053512;28;20229;-83
2023/08/05 08:29:53;;;;;;;5.30;3.50;;;;;;;19.24;85.82;97976.28;5053295;28;20227;-83
2023/08/05 08:32:20;;;;;;;3.47;2.90;;;;;;;19.36;85.69;97974.97;5053868;28;20234;-83
2023/08/05 08:34:47;;;;;;;3.07;2.60;;;;;;;19.34;83.61;97960.03;5054032;28;20216;-84
2023/08/05 08:37:14;;;;;;;3.10;2.80;;;;;;;19.30;83.18;97970.25;5053556;28;20208;-84
2023/08/05 08:39:40;;;;;;;2.40;2.17;;;;;;;19.24;84.38;97965.56;5053261;28;20209;-84
2023/08/05 08:42:08;;;;;;;3.13;2.73;;;;;;;19.29;84.57;97970.41;5053954;28;20204;-84
2023/08/05 08:44:36;;;;;;;3.17;2.20;;;;;;;19.32;83.57;97967.44;5053918;28;20674;-84
2023/08/05 08:47:06;;;;;;;3.00;2.20;;;;;;;19.55;79.46;97953.22;5054010;28;20215;-84
2023/08/05 08:49:36;;;;;;;2.73;2.30;;;;;;;19.60;79.97;97948.19;5052908;28;20208;-83
2023/08/05 08:52:07;;;;;;;4.03;2.50;;;;;;;19.61;82.22;97957.91;5053515;28;20215;-84
2023/08/05 08:54:34;;;;;;;4.10;2.33;;;;;;;19.72;82.02;97964.78;5053893;28;20212;-84
2023/08/05 08:57:01;;;;;;;4.20;2.93;;;;;;;19.97;80.90;97959.25;5053743;28;20214;-84
2023/08/05 08:59:27;;;;;;;5.40;2.90;;;;;;;20.13;81.95;97969.19;5052744;28;21042;-84
2023/08/05 09:01:55;;;;;;;3.97;3.00;;;;;;;20.28;79.96;97965.63;5053461;28;20209;-83
2023/08/05 09:04:23;;;;;;;3.27;2.10;;;;;;;20.34;75.94;97943.47;5053262;28;20262;-83
2023/08/05 09:06:52;;;;;;;2.80;2.40;;;;;;;20.20;76.13;97944.19;5053167;28;20303;-83
2023/08/05 09:09:20;;;;;;;3.40;2.80;;;;;;;19.99;77.89;97951.88;5052171;28;20734;-83
2023/08/05 09:11:46;;;;;;;3.90;2.90;;;;;;;20.23;79.22;97954.56;5053109;28;20208;-83
2023/08/05 09:14:15;;;;;;;3.70;2.90;;;;;;;20.33;77.48;97947.19;5053153;28;20231;-84
2023/08/05 09:16:57;;;;;;;4.03;2.50;;;;;;;20.42;76.47;97943.44;5053581;28;20231;-84
2023/08/05 09:19:26;;;;;;;2.63;2.37;;;;;;;20.31;75.84;97948.34;5052758;28;20231;-83
2023/08/05 09:21:52;;;;;;;2.77;2.57;;;;;;;20.38;75.26;97947.50;5053122;28;20569;-83
2023/08/05 09:24:23;;;;;;;2.87;2.57;;;;;;;20.30;74.56;97938.63;5052915;28;20207;-83
2023/08/05 09:26:55;;;;;;;2.23;2.03;;;;;;;20.24;75.90;97956.22;5052748;28;20204;-83
2023/08/05 09:29:22;;;;;;;3.20;2.37;;;;;;;20.55;75.59;97954.47;5051869;28;20228;-84
2023/08/05 09:31:55;;;;;;;2.87;2.20;;;;;;;20.89;71.85;97936.28;5052747;28;20690;-84
2023/08/05 09:34:22;;;;;;;2.97;2.30;;;;;;;21.03;71.21;97926.66;5052448;28;20686;-84
2023/08/05 09:36:48;;;;;;;3.10;2.00;;;;;;;20.98;70.84;97921.78;5052398;28;20624;-84
2023/08/05 09:39:16;;;;;;;3.10;2.33;;;;;;;21.08;70.08;97930.47;5051707;28;20490;-83
2023/08/05 09:41:51;;;;;;;4.33;2.53;;;;;;;21.28;68.05;97923.63;5052437;28;20285;-83
2023/08/05 09:44:17;;;;;;;2.70;2.37;;;;;;;21.36;68.22;97912.84;5052567;28;20238;-83
2023/08/05 09:46:46;;;;;;;3.87;2.40;;;;;;;21.25;66.31;97907.00;5052551;28;20211;-83
2023/08/05 09:49:14;;;;;;;4.33;2.27;;;;;;;21.26;66.68;97909.53;5051574;28;20241;-83
2023/08/05 09:51:43;;;;;;;2.20;2.00;;;;;;;21.33;66.48;97902.44;5052408;28;20211;-83
2023/08/05 09:54:13;;;;;;;4.57;2.23;;;;;;;21.52;66.08;97904.63;5052298;28;20322;-83
2023/08/05 09:56:41;;;;;;;3.60;2.20;;;;;;;21.80;63.66;97884.28;5052866;28;20211;-83
2023/08/05 09:59:12;;;;;;;3.50;2.20;;;;;;;21.74;60.55;97866.16;5051191;28;20228;-83
2023/08/05 10:01:40;;;;;;;2.83;2.20;;;;;;;21.71;62.86;97885.34;5052075;28;20683;-83
2023/08/05 10:04:09;;;;;;;2.10;1.90;;;;;;;21.75;63.41;97881.28;5052197;28;20204;-83
2023/08/05 10:06:38;;;;;;;2.20;2.00;;;;;;;21.66;63.72;97882.34;5052047;28;20690;-83
2023/08/05 10:09:07;;;;;;;2.40;2.20;;;;;;;21.73;61.16;97867.19;5051639;28;20228;-83
2023/08/05 10:11:36;;;;;;;1.93;1.70;;;;;;;21.77;59.62;97863.09;5052414;28;20622;-83
2023/08/05 10:14:04;;;;;;;3.57;2.10;;;;;;;21.71;60.53;97868.38;5051894;28;20236;-83
2023/08/05 10:16:33;;;;;;;3.97;2.00;;;;;;;21.55;60.66;97860.41;5052009;28;20208;-83
2023/08/05 10:18:59;;;;;;;2.57;2.00;;;;;;;21.51;61.87;97873.38;5051666;28;20228;-83
2023/08/05 10:21:40;;;;;;;2.00;1.90;;;;;;;21.65;62.79;97880.66;5051314;28;20208;-83
2023/08/05 10:24:07;;;;;;;2.33;2.00;;;;;;;21.72;62.34;97878.13;5051883;28;20269;-83
2023/08/05 10:26:44;;;;;;;2.37;1.80;;;;;;;21.76;61.96;97876.75;5051613;28;20216;-83
2023/08/05 10:29:26;;;;;;;2.60;2.17;;;;;;;21.73;61.77;97866.34;5051096;28;20600;-83
2023/08/05 10:32:08;;;;;;;2.00;1.80;;;;;;;21.81;59.22;97848.28;5051684;28;20265;-83
2023/08/05 10:34:35;;;;;;;2.47;1.97;;;;;;;21.56;60.19;97844.09;5051410;28;20779;-83
2023/08/05 10:37:01;;;;;;;3.00;2.20;;;;;;;21.57;60.30;97842.25;5051567;28;20485;-83
2023/08/05 10:39:41;;;;;;;2.23;2.03;;;;;;;21.47;61.47;97855.09;5050794;28;20228;-83
2023/08/05 10:42:31;;;;;;;3.17;2.10;;;;;;;21.36;61.97;97851.00;5051353;28;20218;-83
2023/08/05 10:44:58;;;;;;;2.90;2.40;;;;;;;21.30;61.93;97854.41;5051822;28;20212;-83
2023/08/05 10:47:27;;;;;;;2.40;2.20;;;;;;;21.39;61.42;97847.94;5051637;28;20618;-83
2023/08/05 10:49:57;;;;;;;3.43;2.33;;;;;;;21.38;63.26;97859.72;5050778;28;20210;-83
2023/08/05 10:52:24;;;;;;;4.27;2.87;;;;;;;21.51;64.14;97857.25;5051369;28;20601;-83
2023/08/05 10:54:52;;;;;;;2.53;2.33;;;;;;;21.63;61.57;97845.03;5051138;28;20590;-83
2023/08/05 10:57:47;;;;;;;2.53;2.20;;;;;;;21.72;60.68;97827.00;5051201;28;20208;-83
2023/08/05 11:00:21;;;;;;;2.50;2.30;;;;;;;21.85;60.03;97813.75;5050400;28;20732;-83
2023/08/05 11:03:09;;;;;;;3.20;2.43;;;;;;;21.91;57.19;97802.25;5051197;28;20698;-83
2023/08/05 11:05:36;;;;;;;3.30;2.30;;;;;;;21.72;57.50;97795.59;5051084;28;20238;-83
2023/08/05 11:08:02;;;;;;;3.27;2.20;;;;;;;21.67;56.96;97792.59;5051094;28;20232;-83
2023/08/05 11:10:31;;;;;;;2.53;2.33;;;;;;;21.75;56.40;97789.81;5050358;28;20405;-83
2023/08/05 11:12:57;;;;;;;2.50;2.30;;;;;;;21.75;56.28;97784.44;5055120;28;20277;-83
2023/08/05 11:15:24;;;;;;;2.07;1.87;;;;;;;21.81;56.64;97783.69;5055273;28;20298;-83
2023/08/05 11:17:54;;;;;;;2.60;1.90;;;;;;;22.13;55.39;97777.13;5054960;28;20243;-83
2023/08/05 11:20:21;;;;;;;2.10;1.90;;;;;;;22.16;53.57;97761.44;5054473;28;20309;-83
2023/08/05 11:22:48;;;;;;;3.90;1.93;;;;;;;22.34;53.43;97756.50;5055212;28;20210;-84
2023/08/05 11:25:18;;;;;;;2.73;2.23;;;;;;;22.48;53.80;97754.81;5055257;28;20211;-83
2023/08/05 11:27:51;;;;;;;2.77;1.73;;;;;;;22.83;52.98;97745.88;5055128;28;20318;-83
2023/08/05 11:30:19;;;;;;;2.30;1.90;;;;;;;22.84;50.42;97717.91;5054316;28;20212;-83
2023/08/05 11:32:50;;;;;;;2.17;1.53;;;;;;;22.86;50.71;97727.47;5054991;28;20208;-82